createdAt,value
2022-11-16T00:02:10.677Z,98039.20
2022-11-16T00:05:08.218Z,98032.40
2022-11-16T00:08:05.781Z,98035.20
2022-11-16T00:11:05.497Z,98024.00
2022-11-16T00:14:03.233Z,98016.20
2022-11-16T00:17:01.707Z,98009.20
2022-11-16T00:19:59.244Z,98008.20
2022-11-16T00:22:56.748Z,98006.20
2022-11-16T00:25:54.283Z,98008.20
2022-11-16T00:28:51.849Z,97998.60
2022-11-16T00:31:49.433Z,97997.40
2022-11-16T00:34:47.129Z,97998.00
2022-11-16T00:37:44.645Z,98002.20
2022-11-16T00:40:42.163Z,97996.80
2022-11-16T00:43:39.697Z,97999.60
2022-11-16T00:46:37.285Z,98002.80
2022-11-16T00:49:34.840Z,98003.60
2022-11-16T00:52:32.385Z,98004.80
2022-11-16T00:55:29.934Z,97996.40
2022-11-16T00:58:29.066Z,98000.80
2022-11-16T01:01:27.114Z,98004.00
2022-11-16T01:04:24.655Z,98003.60
2022-11-16T01:07:22.163Z,97999.20
2022-11-16T01:10:19.663Z,97997.60
2022-11-16T01:13:17.147Z,97989.60
2022-11-16T01:16:14.627Z,97988.80
2022-11-16T01:19:12.067Z,97984.60
2022-11-16T01:22:09.521Z,97984.80
2022-11-16T01:25:07.017Z,97982.80
2022-11-16T01:28:04.490Z,97984.60
2022-11-16T01:31:01.969Z,97978.40
2022-11-16T01:33:59.701Z,97979.60
2022-11-16T01:36:57.188Z,97973.40
2022-11-16T01:39:54.646Z,97970.60
2022-11-16T01:42:52.151Z,97967.40
2022-11-16T01:45:49.714Z,97959.20
2022-11-16T01:48:47.287Z,97958.80
2022-11-16T01:51:44.777Z,97948.20
2022-11-16T01:54:42.229Z,97940.20
2022-11-16T01:57:39.986Z,97937.80
2022-11-16T02:00:37.431Z,97929.40
2022-11-16T02:03:34.894Z,97924.00
2022-11-16T02:06:32.726Z,97924.80
2022-11-16T02:09:47.865Z,97921.40
2022-11-16T02:12:45.325Z,97919.60
2022-11-16T02:15:42.762Z,97914.80
2022-11-16T02:18:40.246Z,97912.00
2022-11-16T02:21:37.713Z,97903.40
2022-11-16T02:24:35.168Z,97896.00
2022-11-16T02:27:32.612Z,97889.20
2022-11-16T02:30:30.041Z,97881.40
2022-11-16T02:33:27.484Z,97876.60
2022-11-16T02:36:24.902Z,97869.20
2022-11-16T02:39:22.351Z,97862.80
2022-11-16T02:42:19.804Z,97861.60
2022-11-16T02:45:17.231Z,97869.40
2022-11-16T02:48:14.685Z,97863.20
2022-11-16T02:51:12.110Z,97859.60
2022-11-16T02:54:11.778Z,97853.00
2022-11-16T02:57:09.229Z,97851.00
2022-11-16T03:00:06.682Z,97855.60
2022-11-16T03:03:04.150Z,97851.00
2022-11-16T03:06:01.597Z,97846.60
2022-11-16T03:08:59.036Z,97842.80
2022-11-16T03:12:04.700Z,97838.40
2022-11-16T03:15:02.176Z,97835.40
2022-11-16T03:17:59.630Z,97839.60
2022-11-16T03:20:57.093Z,97841.00
2022-11-16T03:23:54.560Z,97842.60
2022-11-16T03:26:52.005Z,97846.00
2022-11-16T03:29:49.471Z,97841.60
2022-11-16T03:32:46.921Z,97842.40
2022-11-16T03:35:44.381Z,97843.40
2022-11-16T03:38:41.836Z,97839.40
2022-11-16T03:41:39.289Z,97836.60
2022-11-16T03:44:36.757Z,97836.00
2022-11-16T03:47:34.197Z,97834.20
2022-11-16T03:50:31.658Z,97828.20
2022-11-16T03:53:29.149Z,97826.20
2022-11-16T03:56:26.601Z,97824.80
2022-11-16T03:59:24.051Z,97814.80
2022-11-16T04:02:21.538Z,97808.60
2022-11-16T04:05:36.815Z,97799.40
2022-11-16T04:08:52.072Z,97795.80
2022-11-16T04:12:07.538Z,97794.20
2022-11-16T04:15:22.853Z,97787.60
2022-11-16T04:18:38.413Z,97787.80
2022-11-16T04:21:53.745Z,97786.40
2022-11-16T04:24:51.197Z,97784.80
2022-11-16T04:28:06.447Z,97777.60
2022-11-16T04:31:21.675Z,97768.80
2022-11-16T04:34:36.877Z,97773.00
2022-11-16T04:37:49.926Z,97772.40
2022-11-16T04:40:48.085Z,97768.00
2022-11-16T04:43:45.535Z,97765.80
2022-11-16T04:47:00.566Z,97765.00
2022-11-16T04:49:58.021Z,97768.00
2022-11-16T04:52:55.500Z,97761.00
2022-11-16T04:55:56.696Z,97755.60
2022-11-16T04:58:59.350Z,97758.00
2022-11-16T05:02:09.209Z,97767.80
2022-11-16T05:05:06.696Z,97757.00
2022-11-16T05:08:04.122Z,97760.40
2022-11-16T05:11:01.554Z,97758.40
2022-11-16T05:13:59.008Z,97751.20
2022-11-16T05:16:56.478Z,97752.60
2022-11-16T05:20:11.698Z,97753.40
2022-11-16T05:23:29.800Z,97756.20
2022-11-16T05:26:27.288Z,97765.20
2022-11-16T05:29:24.719Z,97757.20
2022-11-16T05:32:22.210Z,97755.00
2022-11-16T05:35:19.665Z,97759.40
2022-11-16T05:38:17.121Z,97755.80
2022-11-16T05:41:14.601Z,97754.40
2022-11-16T05:44:12.044Z,97753.00
2022-11-16T05:47:09.507Z,97741.80
2022-11-16T05:50:06.956Z,97731.20
2022-11-16T05:53:04.505Z,97728.80
2022-11-16T05:56:02.038Z,97724.40
2022-11-16T05:58:59.486Z,97727.20
2022-11-16T06:01:57.956Z,97724.40
2022-11-16T06:04:55.423Z,97723.40
2022-11-16T06:07:52.889Z,97727.40
2022-11-16T06:10:50.366Z,97725.60
2022-11-16T06:13:47.814Z,97724.40
2022-11-16T06:16:45.264Z,97729.00
2022-11-16T06:19:42.722Z,97732.60
2022-11-16T06:22:40.171Z,97737.20
2022-11-16T06:25:37.632Z,97740.20
2022-11-16T06:28:35.364Z,97743.80
2022-11-16T06:31:33.156Z,97742.60
2022-11-16T06:34:30.612Z,97739.20
2022-11-16T06:37:28.072Z,97734.60
2022-11-16T06:40:25.523Z,97730.00
2022-11-16T06:43:22.977Z,97728.20
2022-11-16T06:46:20.422Z,97722.60
2022-11-16T06:49:17.867Z,97719.60
2022-11-16T06:52:15.414Z,97712.40
2022-11-16T06:55:12.872Z,97709.20
2022-11-16T06:58:10.343Z,97707.60
2022-11-16T07:01:07.868Z,97705.40
2022-11-16T07:04:05.325Z,97707.80
2022-11-16T07:07:02.839Z,97703.60
2022-11-16T07:10:00.386Z,97695.80
2022-11-16T07:12:57.862Z,97693.60
2022-11-16T07:15:55.302Z,97694.40
2022-11-16T07:18:52.836Z,97698.40
2022-11-16T07:21:50.286Z,97696.60
2022-11-16T07:24:47.754Z,97702.00
2022-11-16T07:27:45.227Z,97695.00
2022-11-16T07:30:42.659Z,97692.40
2022-11-16T07:33:40.083Z,97694.60
2022-11-16T07:36:37.534Z,97692.80
2022-11-16T07:39:34.970Z,97695.20
2022-11-16T07:42:32.403Z,97692.40
2022-11-16T07:45:29.890Z,97698.40
2022-11-16T07:48:27.340Z,97701.00
2022-11-16T07:51:24.797Z,97700.80
2022-11-16T07:54:22.260Z,97704.40
2022-11-16T07:57:19.692Z,97704.80
2022-11-16T08:00:17.150Z,97705.00
2022-11-16T08:03:14.600Z,97708.60
2022-11-16T08:06:12.073Z,97705.20
2022-11-16T08:09:09.532Z,97708.80
2022-11-16T08:12:07.072Z,97704.80
2022-11-16T08:15:04.539Z,97701.80
2022-11-16T08:18:02.010Z,97697.80
2022-11-16T08:20:59.514Z,97699.80
2022-11-16T08:23:58.741Z,97700.20
2022-11-16T08:26:58.893Z,97699.20
2022-11-16T08:29:56.786Z,97705.00
2022-11-16T08:32:54.223Z,97705.00
2022-11-16T08:35:51.668Z,97702.20
2022-11-16T08:38:49.107Z,97706.40
2022-11-16T08:41:46.587Z,97702.80
2022-11-16T08:44:44.024Z,97712.60
2022-11-16T08:47:41.493Z,97715.00
2022-11-16T08:51:09.922Z,97713.60
2022-11-16T08:53:56.378Z,97710.40
2022-11-16T08:56:53.846Z,97717.60
2022-11-16T08:59:51.290Z,97720.40
2022-11-16T09:02:48.745Z,97719.60
2022-11-16T09:05:47.057Z,97726.80
2022-11-16T09:08:44.503Z,97725.60
2022-11-16T09:11:41.988Z,97727.80
2022-11-16T09:14:39.655Z,97729.00
2022-11-16T09:17:37.137Z,97729.80
2022-11-16T09:20:34.610Z,97730.40
2022-11-16T09:23:32.056Z,97734.00
2022-11-16T09:26:30.372Z,97728.60
2022-11-16T09:29:28.831Z,97725.40
2022-11-16T09:32:26.299Z,97726.00
2022-11-16T09:35:24.188Z,97723.60
2022-11-16T09:38:30.552Z,97720.00
2022-11-16T09:41:37.928Z,97716.60
2022-11-16T09:44:35.792Z,97722.20
2022-11-16T09:47:33.244Z,97730.80
2022-11-16T09:50:30.683Z,97735.20
2022-11-16T09:53:28.144Z,97734.80
2022-11-16T09:56:25.982Z,97735.20
2022-11-16T09:59:23.710Z,97734.40
2022-11-16T10:02:21.457Z,97735.60
2022-11-16T10:05:18.911Z,97734.00
2022-11-16T10:08:16.394Z,97734.40
2022-11-16T10:11:13.855Z,97732.60
2022-11-16T10:14:11.295Z,97729.00
2022-11-16T10:17:08.746Z,97723.40
2022-11-16T10:20:06.419Z,97716.40
2022-11-16T10:23:04.282Z,97710.40
2022-11-16T10:26:01.879Z,97709.40
2022-11-16T10:28:59.361Z,97711.80
2022-11-16T10:31:56.814Z,97712.00
2022-11-16T10:34:54.301Z,97709.60
2022-11-16T10:37:51.792Z,97706.00
2022-11-16T10:40:49.261Z,97706.00
2022-11-16T10:43:46.745Z,97698.20
2022-11-16T10:46:44.975Z,97693.80
2022-11-16T10:49:42.670Z,97703.00
2022-11-16T10:52:40.136Z,97696.80
2022-11-16T10:55:37.597Z,97695.00
2022-11-16T10:58:35.085Z,97687.40
2022-11-16T11:01:32.512Z,97691.80
2022-11-16T11:04:30.143Z,97690.00
2022-11-16T11:07:27.722Z,97689.60
2022-11-16T11:10:25.288Z,97684.80
2022-11-16T11:13:22.725Z,97688.20
2022-11-16T11:16:20.681Z,97686.00
2022-11-16T11:19:18.193Z,97688.20
2022-11-16T11:22:15.910Z,97684.80
2022-11-16T11:25:13.494Z,97680.80
2022-11-16T11:28:10.961Z,97683.20
2022-11-16T11:31:08.434Z,97678.40
2022-11-16T11:34:05.869Z,97679.00
2022-11-16T11:37:03.495Z,97678.20
2022-11-16T11:40:00.962Z,97679.40
2022-11-16T11:42:58.710Z,97680.80
2022-11-16T11:45:56.169Z,97678.80
2022-11-16T11:48:53.681Z,97679.00
2022-11-16T11:51:51.176Z,97680.80
2022-11-16T11:54:48.768Z,97670.80
2022-11-16T11:57:46.240Z,97673.60
2022-11-16T12:00:43.697Z,97677.60
2022-11-16T12:03:41.169Z,97679.00
2022-11-16T12:06:43.631Z,97681.80
2022-11-16T12:09:41.950Z,97687.00
2022-11-16T12:12:39.439Z,97681.60
2022-11-16T12:15:36.907Z,97678.80
2022-11-16T12:18:34.353Z,97681.40
2022-11-16T12:21:31.825Z,97677.00
2022-11-16T12:24:29.265Z,97673.00
2022-11-16T12:27:27.467Z,97674.00
2022-11-16T12:30:24.935Z,97676.40
2022-11-16T12:33:23.807Z,97673.00
2022-11-16T12:36:21.268Z,97673.40
2022-11-16T12:39:18.773Z,97665.00
2022-11-16T12:42:16.276Z,97661.80
2022-11-16T12:45:14.529Z,97668.40
2022-11-16T12:48:11.992Z,97666.20
2022-11-16T12:51:09.854Z,97663.60
2022-11-16T12:54:07.317Z,97665.80
2022-11-16T12:57:04.816Z,97661.60
2022-11-16T13:00:02.267Z,97667.80
2022-11-16T13:03:00.220Z,97665.40
2022-11-16T13:05:57.682Z,97667.80
2022-11-16T13:08:55.280Z,97661.00
2022-11-16T13:11:52.732Z,97663.40
2022-11-16T13:14:51.703Z,97658.60
2022-11-16T13:17:49.178Z,97657.40
2022-11-16T13:20:46.642Z,97649.40
2022-11-16T13:23:44.175Z,97642.80
2022-11-16T13:26:41.916Z,97631.00
2022-11-16T13:29:39.362Z,97630.60
2022-11-16T13:32:36.851Z,97625.00
2022-11-16T13:35:34.313Z,97626.60
2022-11-16T13:38:32.088Z,97625.00
2022-11-16T13:41:30.136Z,97618.20
2022-11-16T13:44:27.630Z,97625.80
2022-11-16T13:47:25.073Z,97622.40
2022-11-16T13:50:22.535Z,97623.00
2022-11-16T13:54:10.885Z,97630.80
2022-11-16T13:56:37.482Z,97625.40
2022-11-16T13:59:34.947Z,97621.60
2022-11-16T14:02:32.584Z,97610.00
2022-11-16T14:05:30.036Z,97612.00
2022-11-16T14:08:27.515Z,97613.80
2022-11-16T14:11:24.965Z,97610.60
2022-11-16T14:14:22.410Z,97609.80
2022-11-16T14:17:19.851Z,97611.60
2022-11-16T14:20:22.203Z,97614.60
2022-11-16T14:23:19.846Z,97614.00
2022-11-16T14:26:17.334Z,97616.00
2022-11-16T14:29:15.509Z,97610.80
2022-11-16T14:32:12.944Z,97604.40
2022-11-16T14:35:10.495Z,97606.80
2022-11-16T14:38:07.942Z,97603.20
2022-11-16T14:41:05.399Z,97602.60
2022-11-16T14:44:02.832Z,97599.20
2022-11-16T14:47:00.287Z,97603.80
2022-11-16T14:49:57.740Z,97600.60
2022-11-16T14:52:55.173Z,97596.00
2022-11-16T14:55:52.765Z,97593.40
2022-11-16T14:58:50.220Z,97591.00
2022-11-16T15:01:47.693Z,97593.60
2022-11-16T15:04:45.184Z,97594.00
2022-11-16T15:07:42.716Z,97586.80
2022-11-16T15:10:40.196Z,97583.00
2022-11-16T15:13:37.871Z,97581.20
2022-11-16T15:16:35.331Z,97577.40
2022-11-16T15:19:33.256Z,97577.40
2022-11-16T15:22:30.754Z,97574.40
2022-11-16T15:25:28.206Z,97574.00
2022-11-16T15:28:26.576Z,97577.60
2022-11-16T15:31:24.285Z,97573.80
2022-11-16T15:34:24.888Z,97573.40
2022-11-16T15:37:22.356Z,97571.40
2022-11-16T15:40:19.805Z,97567.80
2022-11-16T15:43:18.149Z,97561.80
2022-11-16T15:46:15.626Z,97564.60
2022-11-16T15:49:13.074Z,97556.20
2022-11-16T15:52:10.816Z,97553.60
2022-11-16T15:55:08.256Z,97556.80
2022-11-16T15:58:07.364Z,97553.60
2022-11-16T16:01:04.956Z,97560.20
2022-11-16T16:04:02.447Z,97555.40
2022-11-16T16:06:59.992Z,97555.80
2022-11-16T16:09:59.636Z,97559.20
2022-11-16T16:12:57.109Z,97561.60
2022-11-16T16:15:56.975Z,97557.80
2022-11-16T16:18:54.454Z,97559.40
2022-11-16T16:21:53.775Z,97560.80
2022-11-16T16:24:51.228Z,97566.80
2022-11-16T16:27:48.941Z,97562.40
2022-11-16T16:30:46.452Z,97561.20
2022-11-16T16:33:44.511Z,97562.40
2022-11-16T16:36:42.391Z,97560.60
2022-11-16T16:39:40.256Z,97556.40
2022-11-16T16:42:37.711Z,97557.20
2022-11-16T16:45:35.547Z,97554.80
2022-11-16T16:48:33.460Z,97559.40
2022-11-16T16:51:30.900Z,97554.20
2022-11-16T16:54:29.080Z,97555.80
2022-11-16T16:57:27.007Z,97553.00
2022-11-16T17:00:25.236Z,97553.80
2022-11-16T17:03:24.264Z,97554.00
2022-11-16T17:06:21.895Z,97554.20
2022-11-16T17:09:19.444Z,97553.00
2022-11-16T17:12:17.893Z,97549.40
2022-11-16T17:15:19.378Z,97547.20
2022-11-16T17:18:18.275Z,97549.60
2022-11-16T17:21:16.860Z,97553.00
2022-11-16T17:24:15.392Z,97553.80
2022-11-16T17:27:14.302Z,97555.20
2022-11-16T17:30:12.415Z,97553.60
2022-11-16T17:33:10.536Z,97553.00
2022-11-16T17:36:10.833Z,97556.80
2022-11-16T17:39:08.605Z,97558.20
2022-11-16T17:42:06.103Z,97553.80
2022-11-16T17:45:05.678Z,97553.00
2022-11-16T17:48:04.130Z,97556.00
2022-11-16T17:51:02.711Z,97554.60
2022-11-16T17:54:00.774Z,97553.80
2022-11-16T17:56:59.201Z,97555.00
2022-11-16T17:59:57.371Z,97551.60
2022-11-16T18:02:55.513Z,97547.60
2022-11-16T18:05:54.003Z,97550.60
2022-11-16T18:08:52.390Z,97555.20
2022-11-16T18:11:50.975Z,97547.60
2022-11-16T18:15:13.373Z,97547.40
2022-11-16T18:18:07.923Z,97543.40
2022-11-16T18:21:06.388Z,97542.20
2022-11-16T18:24:05.419Z,97541.00
2022-11-16T18:27:04.075Z,97541.00
2022-11-16T18:30:02.558Z,97544.00
2022-11-16T18:33:00.873Z,97546.60
2022-11-16T18:36:01.475Z,97555.80
2022-11-16T18:38:59.932Z,97553.80
2022-11-16T18:41:58.389Z,97554.60
2022-11-16T18:44:57.427Z,97549.80
2022-11-16T18:47:56.081Z,97551.80
2022-11-16T18:50:54.813Z,97553.80
2022-11-16T18:53:52.951Z,97554.80
2022-11-16T18:56:53.294Z,97556.80
2022-11-16T18:59:51.380Z,97554.80
2022-11-16T19:02:49.891Z,97550.00
2022-11-16T19:05:48.370Z,97552.60
2022-11-16T19:08:50.506Z,97558.00
2022-11-16T19:11:52.546Z,97556.00
2022-11-16T19:14:52.510Z,97553.00
2022-11-16T19:18:19.861Z,97548.00
2022-11-16T19:21:12.279Z,97540.20
2022-11-16T19:27:24.069Z,97542.20
2022-11-16T19:30:23.415Z,97543.00
2022-11-16T19:33:22.824Z,97543.60
2022-11-16T19:36:21.050Z,97544.60
2022-11-16T19:39:19.123Z,97544.80
2022-11-16T19:42:17.654Z,97546.80
2022-11-16T19:45:16.340Z,97551.00
2022-11-16T19:48:14.925Z,97548.80
2022-11-16T19:51:13.026Z,97547.60
2022-11-16T19:54:16.089Z,97546.20
2022-11-16T19:57:16.260Z,97540.60
2022-11-16T20:00:15.442Z,97539.20
2022-11-16T20:03:14.405Z,97534.80
2022-11-16T20:06:12.923Z,97537.20
2022-11-16T20:09:12.703Z,97533.00
2022-11-16T20:12:10.708Z,97533.00
2022-11-16T20:15:09.360Z,97531.80
2022-11-16T20:18:07.735Z,97532.40
2022-11-16T20:21:07.969Z,97525.80
2022-11-16T20:24:07.406Z,97526.80
2022-11-16T20:27:06.469Z,97528.60
2022-11-16T20:30:09.298Z,97522.80
2022-11-16T20:33:08.151Z,97515.80
2022-11-16T20:36:06.222Z,97510.60
2022-11-16T20:39:04.398Z,97511.80
2022-11-16T20:42:02.987Z,97507.80
2022-11-16T20:45:02.693Z,97514.40
2022-11-16T20:48:02.914Z,97521.20
2022-11-16T20:51:00.988Z,97517.20
2022-11-16T20:54:00.275Z,97512.00
2022-11-16T20:57:00.206Z,97508.60
2022-11-16T20:59:57.823Z,97499.20
2022-11-16T21:02:56.359Z,97495.20
2022-11-16T21:05:54.844Z,97491.40
2022-11-16T21:08:52.927Z,97496.80
2022-11-16T21:12:08.096Z,97492.00
2022-11-16T21:15:05.562Z,97494.20
2022-11-16T21:18:03.041Z,97492.40
2022-11-16T21:21:00.755Z,97489.60
2022-11-16T21:23:58.281Z,97486.20
2022-11-16T21:26:55.726Z,97486.40
2022-11-16T21:29:53.182Z,97475.60
2022-11-16T21:32:50.722Z,97477.60
2022-11-16T21:35:48.205Z,97478.40
2022-11-16T21:38:45.666Z,97479.20
2022-11-16T21:41:46.176Z,97481.00
2022-11-16T21:44:43.636Z,97470.20
2022-11-16T21:47:41.107Z,97474.00
2022-11-16T21:50:38.552Z,97475.80
2022-11-16T21:53:37.646Z,97482.00
2022-11-16T21:56:35.356Z,97482.20
2022-11-16T21:59:32.853Z,97479.00
2022-11-16T22:02:30.304Z,97473.20
2022-11-16T22:05:45.692Z,97476.00
2022-11-16T22:08:43.210Z,97472.80
2022-11-16T22:11:40.655Z,97478.20
2022-11-16T22:14:38.147Z,97470.40
2022-11-16T22:17:35.600Z,97470.80
2022-11-16T22:20:33.055Z,97463.60
2022-11-16T22:23:30.512Z,97469.40
2022-11-16T22:26:28.015Z,97467.80
2022-11-16T22:29:25.490Z,97466.20
2022-11-16T22:32:22.944Z,97467.40
2022-11-16T22:35:20.395Z,97466.60
2022-11-16T22:38:17.847Z,97475.20
2022-11-16T22:41:15.306Z,97471.00
2022-11-16T22:44:12.744Z,97471.40
2022-11-16T22:47:10.195Z,97471.80
2022-11-16T22:50:07.653Z,97473.80
2022-11-16T22:53:05.110Z,97479.00
2022-11-16T22:56:02.594Z,97480.60
2022-11-16T22:59:00.824Z,97480.60
2022-11-16T23:02:02.914Z,97472.20
2022-11-16T23:05:00.379Z,97479.40
2022-11-16T23:07:58.282Z,97478.80
2022-11-16T23:11:09.608Z,97476.60
2022-11-16T23:14:24.659Z,97477.60
2022-11-16T23:17:22.129Z,97476.80
2022-11-16T23:20:37.153Z,97469.00
2022-11-16T23:23:52.998Z,97469.40
2022-11-16T23:27:08.241Z,97466.20
2022-11-16T23:30:10.950Z,97463.60
2022-11-16T23:33:10.081Z,97463.20
2022-11-16T23:36:07.885Z,97474.40
2022-11-16T23:39:05.358Z,97475.20
2022-11-16T23:42:20.929Z,97480.60
2022-11-16T23:45:18.619Z,97481.80
2022-11-16T23:48:16.070Z,97479.80
2022-11-16T23:51:13.521Z,97488.20
2022-11-16T23:54:10.983Z,97491.80
2022-11-16T23:57:08.465Z,97490.00
